PWSweather.com
Personal Weather Stations
Station Observations
MOYOCK
2015 Caratoke Hwy, Moyock, NC 27958

2015 Caratoke HwyMoyock, NC 27958

Lat: 36.45462, Lon: -76.083127

Elevation: 5

Station Type: Davis Vantage Pro 2

www.moyockweather.com

High Low Average
Temperature 57.6°F14.2°C 28.9°F-1.7°C 43.1°F6.2°C
Dew Point 48.4°F9.1°C 27.4°F-2.6°C 37.6°F3.1°C
Winds 12.0 mph 19.3 kmh Calm Calm 2.0 mph SW3.2 kmh SW
Wind Gusts 16.0 mph25.7 kmh -- 5.0 mph8.0 kmh
Humidity 97% 58% 82%
Pressure 30.46 in1031.5 mb 30.30 in1026.1 mb -
Precipitation 0.00 in0.0 mm - -
Hour Temp Dew Point Humidity Winds Wind Gusts Pressure Precip Precip Rate Daily Precip Total
12:02 AM 33.0°F0.6°C 30.4°F-0.9°C 90% Calm Calm -- 30.45 in1031.2 mb 0.00 in0.0 mm 0.00 in/hr0.0 mm/hr 0.00 in0.0 mm
12:10 AM 32.6°F0.3°C 30.0°F-1.1°C 90% Calm Calm -- 30.45 in1031.2 mb 0.00 in0.0 mm 0.00 in/hr0.0 mm/hr 0.00 in0.0 mm
12:20 AM 32.5°F0.3°C 29.9°F-1.2°C 90% Calm Calm -- 30.45 in1031.2 mb 0.00 in0.0 mm 0.00 in/hr0.0 mm/hr 0.00 in0.0 mm
12:31 AM 32.2°F0.1°C 29.9°F-1.2°C 91% Calm Calm -- 30.45 in1031.2 mb 0.00 in0.0 mm 0.00 in/hr0.0 mm/hr 0.00 in0.0 mm
12:40 AM 32.1°F0.1°C 29.8°F-1.2°C 91% Calm Calm -- 30.45 in1031.2 mb 0.00 in0.0 mm 0.00 in/hr0.0 mm/hr 0.00 in0.0 mm
12:50 AM 31.9°F-0.1°C 29.6°F-1.3°C 91% Calm Calm -- 30.45 in1031.2 mb 0.00 in0.0 mm 0.00 in/hr0.0 mm/hr 0.00 in0.0 mm
01:01 AM 31.8°F-0.1°C 29.8°F-1.2°C 92% Calm Calm -- 30.45 in1031.2 mb 0.00 in0.0 mm 0.00 in/hr0.0 mm/hr 0.00 in0.0 mm
01:10 AM 31.9°F-0.1°C 29.8°F-1.2°C 92% Calm Calm -- 30.45 in1031.2 mb 0.00 in0.0 mm 0.00 in/hr0.0 mm/hr 0.00 in0.0 mm
01:20 AM 32.0°F0.0°C 29.9°F-1.2°C 92% Calm Calm -- 30.45 in1031.2 mb 0.00 in0.0 mm 0.00 in/hr0.0 mm/hr 0.00 in0.0 mm
01:31 AM 32.0°F0.0°C 30.2°F-1.0°C 93% Calm Calm -- 30.45 in1031.2 mb 0.00 in0.0 mm 0.00 in/hr0.0 mm/hr 0.00 in0.0 mm
01:40 AM 31.8°F-0.1°C 30.0°F-1.1°C 93% Calm Calm -- 30.44 in1030.8 mb 0.00 in0.0 mm 0.00 in/hr0.0 mm/hr 0.00 in0.0 mm
01:50 AM 31.5°F-0.3°C 29.7°F-1.3°C 93% Calm Calm -- 30.44 in1030.8 mb 0.00 in0.0 mm 0.00 in/hr0.0 mm/hr 0.00 in0.0 mm
02:00 AM 31.3°F-0.4°C 29.5°F-1.4°C 93% Calm Calm -- 30.44 in1030.8 mb 0.00 in0.0 mm 0.00 in/hr0.0 mm/hr 0.00 in0.0 mm
02:10 AM 31.3°F-0.4°C 29.5°F-1.4°C 93% Calm Calm -- 30.44 in1030.8 mb 0.00 in0.0 mm 0.00 in/hr0.0 mm/hr 0.00 in0.0 mm
02:20 AM 31.0°F-0.6°C 29.2°F-1.6°C 93% Calm Calm -- 30.44 in1030.8 mb 0.00 in0.0 mm 0.00 in/hr0.0 mm/hr 0.00 in0.0 mm
02:31 AM 31.2°F-0.4°C 29.7°F-1.3°C 94% Calm Calm -- 30.44 in1030.8 mb 0.00 in0.0 mm 0.00 in/hr0.0 mm/hr 0.00 in0.0 mm
02:40 AM 31.1°F-0.5°C 29.3°F-1.5°C 93% Calm Calm -- 30.44 in1030.8 mb 0.00 in0.0 mm 0.00 in/hr0.0 mm/hr 0.00 in0.0 mm
02:50 AM 31.0°F-0.6°C 29.2°F-1.6°C 93% Calm Calm -- 30.44 in1030.8 mb 0.00 in0.0 mm 0.00 in/hr0.0 mm/hr 0.00 in0.0 mm
03:01 AM 30.2°F-1.0°C 28.4°F-2.0°C 93% Calm Calm -- 30.44 in1030.8 mb 0.00 in0.0 mm 0.00 in/hr0.0 mm/hr 0.00 in0.0 mm
03:10 AM 29.9°F-1.2°C 28.1°F-2.2°C 93% Calm Calm -- 30.44 in1030.8 mb 0.00 in0.0 mm 0.00 in/hr0.0 mm/hr 0.00 in0.0 mm
03:20 AM 29.8°F-1.2°C 28.0°F-2.2°C 93% Calm Calm -- 30.44 in1030.8 mb 0.00 in0.0 mm 0.00 in/hr0.0 mm/hr 0.00 in0.0 mm
03:31 AM 29.6°F-1.3°C 28.1°F-2.2°C 94% Calm Calm -- 30.44 in1030.8 mb 0.00 in0.0 mm 0.00 in/hr0.0 mm/hr 0.00 in0.0 mm
03:40 AM 29.6°F-1.3°C 28.1°F-2.2°C 94% Calm Calm -- 30.45 in1031.2 mb 0.00 in0.0 mm 0.00 in/hr0.0 mm/hr 0.00 in0.0 mm
03:50 AM 29.6°F-1.3°C 28.1°F-2.2°C 94% Calm Calm -- 30.45 in1031.2 mb 0.00 in0.0 mm 0.00 in/hr0.0 mm/hr 0.00 in0.0 mm
04:01 AM 29.7°F-1.3°C 28.2°F-2.1°C 94% Calm Calm -- 30.44 in1030.8 mb 0.00 in0.0 mm 0.00 in/hr0.0 mm/hr 0.00 in0.0 mm
04:10 AM 29.5°F-1.4°C 28.0°F-2.2°C 94% Calm Calm -- 30.45 in1031.2 mb 0.00 in0.0 mm 0.00 in/hr0.0 mm/hr 0.00 in0.0 mm
04:20 AM 29.6°F-1.3°C 28.4°F-2.0°C 95% Calm Calm -- 30.45 in1031.2 mb 0.00 in0.0 mm 0.00 in/hr0.0 mm/hr 0.00 in0.0 mm
04:31 AM 29.5°F-1.4°C 28.3°F-2.1°C 95% Calm Calm -- 30.45 in1031.2 mb 0.00 in0.0 mm 0.00 in/hr0.0 mm/hr 0.00 in0.0 mm
04:40 AM 29.4°F-1.4°C 27.9°F-2.3°C 94% Calm Calm -- 30.46 in1031.5 mb 0.00 in0.0 mm 0.00 in/hr0.0 mm/hr 0.00 in0.0 mm
04:50 AM 29.2°F-1.6°C 27.7°F-2.4°C 94% Calm Calm -- 30.46 in1031.5 mb 0.00 in0.0 mm 0.00 in/hr0.0 mm/hr 0.00 in0.0 mm
05:01 AM 29.0°F-1.7°C 27.5°F-2.5°C 94% Calm Calm -- 30.46 in1031.5 mb 0.00 in0.0 mm 0.00 in/hr0.0 mm/hr 0.00 in0.0 mm
05:10 AM 28.9°F-1.7°C 27.4°F-2.6°C 94% Calm Calm -- 30.46 in1031.5 mb 0.00 in0.0 mm 0.00 in/hr0.0 mm/hr 0.00 in0.0 mm
05:20 AM 29.0°F-1.7°C 27.8°F-2.3°C 95% Calm Calm -- 30.46 in1031.5 mb 0.00 in0.0 mm 0.00 in/hr0.0 mm/hr 0.00 in0.0 mm
05:30 AM 29.2°F-1.6°C 28.0°F-2.2°C 95% Calm Calm -- 30.46 in1031.5 mb 0.00 in0.0 mm 0.00 in/hr0.0 mm/hr 0.00 in0.0 mm
05:40 AM 29.0°F-1.7°C 27.8°F-2.3°C 95% Calm Calm -- 30.46 in1031.5 mb 0.00 in0.0 mm 0.00 in/hr0.0 mm/hr 0.00 in0.0 mm
05:50 AM 29.0°F-1.7°C 27.8°F-2.3°C 95% Calm Calm -- 30.45 in1031.2 mb 0.00 in0.0 mm 0.00 in/hr0.0 mm/hr 0.00 in0.0 mm
06:01 AM 29.2°F-1.6°C 28.0°F-2.2°C 95% Calm Calm -- 30.45 in1031.2 mb 0.00 in0.0 mm 0.00 in/hr0.0 mm/hr 0.00 in0.0 mm
06:10 AM 29.1°F-1.6°C 27.9°F-2.3°C 95% Calm Calm -- 30.45 in1031.2 mb 0.00 in0.0 mm 0.00 in/hr0.0 mm/hr 0.00 in0.0 mm
06:20 AM 29.0°F-1.7°C 27.8°F-2.3°C 95% Calm Calm -- 30.45 in1031.2 mb 0.00 in0.0 mm 0.00 in/hr0.0 mm/hr 0.00 in0.0 mm
06:31 AM 29.2°F-1.6°C 28.0°F-2.2°C 95% Calm Calm -- 30.46 in1031.5 mb 0.00 in0.0 mm 0.00 in/hr0.0 mm/hr 0.00 in0.0 mm
06:40 AM 29.2°F-1.6°C 28.0°F-2.2°C 95% Calm Calm -- 30.45 in1031.2 mb 0.00 in0.0 mm 0.00 in/hr0.0 mm/hr 0.00 in0.0 mm
06:50 AM 29.0°F-1.7°C 27.8°F-2.3°C 95% Calm Calm -- 30.45 in1031.2 mb 0.00 in0.0 mm 0.00 in/hr0.0 mm/hr 0.00 in0.0 mm
07:01 AM 29.6°F-1.3°C 28.4°F-2.0°C 95% Calm Calm -- 30.45 in1031.2 mb 0.00 in0.0 mm 0.00 in/hr0.0 mm/hr 0.00 in0.0 mm
07:10 AM 29.9°F-1.2°C 28.6°F-1.9°C 95% Calm Calm -- 30.45 in1031.2 mb 0.00 in0.0 mm 0.00 in/hr0.0 mm/hr 0.00 in0.0 mm
07:20 AM 30.5°F-0.8°C 29.5°F-1.4°C 96% Calm Calm -- 30.44 in1030.8 mb 0.00 in0.0 mm 0.00 in/hr0.0 mm/hr 0.00 in0.0 mm
07:30 AM 31.5°F-0.3°C 30.5°F-0.8°C 96% Calm Calm -- 30.44 in1030.8 mb 0.00 in0.0 mm 0.00 in/hr0.0 mm/hr 0.00 in0.0 mm
07:40 AM 32.6°F0.3°C 31.6°F-0.2°C 96% Calm Calm -- 30.45 in1031.2 mb 0.00 in0.0 mm 0.00 in/hr0.0 mm/hr 0.00 in0.0 mm
07:50 AM 33.5°F0.8°C 32.5°F0.3°C 96% Calm Calm -- 30.44 in1030.8 mb 0.00 in0.0 mm 0.00 in/hr0.0 mm/hr 0.00 in0.0 mm
08:00 AM 34.4°F1.3°C 33.4°F0.8°C 96% Calm Calm -- 30.44 in1030.8 mb 0.00 in0.0 mm 0.00 in/hr0.0 mm/hr 0.00 in0.0 mm
08:10 AM 35.6°F2.0°C 34.8°F1.6°C 97% Calm Calm -- 30.44 in1030.8 mb 0.00 in0.0 mm 0.00 in/hr0.0 mm/hr 0.00 in0.0 mm
08:20 AM 37.8°F3.2°C 37.0°F2.8°C 97% Calm Calm -- 30.43 in1030.5 mb 0.00 in0.0 mm 0.00 in/hr0.0 mm/hr 0.00 in0.0 mm
08:31 AM 39.8°F4.3°C 38.8°F3.8°C 96% Calm Calm -- 30.44 in1030.8 mb 0.00 in0.0 mm 0.00 in/hr0.0 mm/hr 0.00 in0.0 mm
08:40 AM 41.6°F5.3°C 39.7°F4.3°C 93% Calm Calm -- 30.44 in1030.8 mb 0.00 in0.0 mm 0.00 in/hr0.0 mm/hr 0.00 in0.0 mm
08:50 AM 43.7°F6.5°C 40.4°F4.7°C 88% Calm Calm 1.0 mph1.6 kmh 30.44 in1030.8 mb 0.00 in0.0 mm 0.00 in/hr0.0 mm/hr 0.00 in0.0 mm
09:01 AM 45.0°F7.2°C 39.5°F4.2°C 81% 3.0 mph S4.8 kmh S 5.0 mph8.0 kmh 30.44 in1030.8 mb 0.00 in0.0 mm 0.00 in/hr0.0 mm/hr 0.00 in0.0 mm
09:10 AM 45.8°F7.7°C 40.0°F4.4°C 80% Calm Calm 5.0 mph8.0 kmh 30.43 in1030.5 mb 0.00 in0.0 mm 0.00 in/hr0.0 mm/hr 0.00 in0.0 mm
10:01 AM 50.9°F10.5°C 44.0°F6.7°C 77% 6.0 mph SSW9.7 kmh SSW 6.0 mph9.7 kmh 30.41 in1029.8 mb 0.00 in0.0 mm 0.00 in/hr0.0 mm/hr 0.00 in0.0 mm
10:10 AM 51.7°F10.9°C 44.0°F6.7°C 75% 4.0 mph SW6.4 kmh SW 9.0 mph14.5 kmh 30.41 in1029.8 mb 0.00 in0.0 mm 0.00 in/hr0.0 mm/hr 0.00 in0.0 mm
10:20 AM 52.8°F11.6°C 45.1°F7.3°C 75% 3.0 mph S4.8 kmh S 9.0 mph14.5 kmh 30.41 in1029.8 mb 0.00 in0.0 mm 0.00 in/hr0.0 mm/hr 0.00 in0.0 mm
10:30 AM 53.1°F11.7°C 45.0°F7.2°C 74% 5.0 mph W8.0 kmh W 6.0 mph9.7 kmh 30.41 in1029.8 mb 0.00 in0.0 mm 0.00 in/hr0.0 mm/hr 0.00 in0.0 mm
10:40 AM 53.8°F12.1°C 45.4°F7.4°C 73% 2.0 mph WSW3.2 kmh WSW 9.0 mph14.5 kmh 30.41 in1029.8 mb 0.00 in0.0 mm 0.00 in/hr0.0 mm/hr 0.00 in0.0 mm
10:50 AM 54.6°F12.6°C 46.1°F7.8°C 73% Calm Calm 9.0 mph14.5 kmh 30.40 in1029.5 mb 0.00 in0.0 mm 0.00 in/hr0.0 mm/hr 0.00 in0.0 mm
11:01 AM 54.5°F12.5°C 45.3°F7.4°C 71% 7.0 mph WSW11.3 kmh WSW 10.0 mph16.1 kmh 30.40 in1029.5 mb 0.00 in0.0 mm 0.00 in/hr0.0 mm/hr 0.00 in0.0 mm
11:10 AM 54.2°F12.3°C 45.0°F7.2°C 71% 1.0 mph WSW1.6 kmh WSW 10.0 mph16.1 kmh 30.40 in1029.5 mb 0.00 in0.0 mm 0.00 in/hr0.0 mm/hr 0.00 in0.0 mm
11:20 AM 54.0°F12.2°C 45.2°F7.3°C 72% Calm Calm 10.0 mph16.1 kmh 30.40 in1029.5 mb 0.00 in0.0 mm 0.00 in/hr0.0 mm/hr 0.00 in0.0 mm
11:31 AM 54.4°F12.4°C 45.2°F7.3°C 71% Calm Calm -- 30.39 in1029.1 mb 0.00 in0.0 mm 0.00 in/hr0.0 mm/hr 0.00 in0.0 mm
11:40 AM 54.9°F12.7°C 44.2°F6.8°C 67% Calm Calm 10.0 mph16.1 kmh 30.39 in1029.1 mb 0.00 in0.0 mm 0.00 in/hr0.0 mm/hr 0.00 in0.0 mm
11:50 AM 55.8°F13.2°C 45.0°F7.2°C 67% 4.0 mph W6.4 kmh W 10.0 mph16.1 kmh 30.39 in1029.1 mb 0.00 in0.0 mm 0.00 in/hr0.0 mm/hr 0.00 in0.0 mm
12:02 PM 55.3°F12.9°C 44.2°F6.8°C 66% 4.0 mph SW6.4 kmh SW 7.0 mph11.3 kmh 30.37 in1028.4 mb 0.00 in0.0 mm 0.00 in/hr0.0 mm/hr 0.00 in0.0 mm
12:10 PM 56.7°F13.7°C 44.7°F7.1°C 64% 8.0 mph SW12.9 kmh SW 10.0 mph16.1 kmh 30.37 in1028.4 mb 0.00 in0.0 mm 0.00 in/hr0.0 mm/hr 0.00 in0.0 mm
12:20 PM 57.5°F14.2°C 44.2°F6.8°C 61% Calm Calm 10.0 mph16.1 kmh 30.36 in1028.1 mb 0.00 in0.0 mm 0.00 in/hr0.0 mm/hr 0.00 in0.0 mm
12:31 PM 57.6°F14.2°C 43.4°F6.3°C 59% 8.0 mph WSW12.9 kmh WSW 14.0 mph22.5 kmh 30.36 in1028.1 mb 0.00 in0.0 mm 0.00 in/hr0.0 mm/hr 0.00 in0.0 mm
12:40 PM 57.4°F14.1°C 43.2°F6.2°C 59% Calm Calm 14.0 mph22.5 kmh 30.35 in1027.8 mb 0.00 in0.0 mm 0.00 in/hr0.0 mm/hr 0.00 in0.0 mm
12:50 PM 57.5°F14.2°C 42.9°F6.1°C 58% 6.0 mph W9.7 kmh W 14.0 mph22.5 kmh 30.35 in1027.8 mb 0.00 in0.0 mm 0.00 in/hr0.0 mm/hr 0.00 in0.0 mm
01:00 PM 56.9°F13.8°C 42.3°F5.7°C 58% 10.0 mph WSW16.1 kmh WSW 12.0 mph19.3 kmh 30.35 in1027.8 mb 0.00 in0.0 mm 0.00 in/hr0.0 mm/hr 0.00 in0.0 mm
01:10 PM 56.8°F13.8°C 42.6°F5.9°C 59% 9.0 mph WSW14.5 kmh WSW 15.0 mph24.1 kmh 30.34 in1027.4 mb 0.00 in0.0 mm 0.00 in/hr0.0 mm/hr 0.00 in0.0 mm
01:20 PM 56.7°F13.7°C 43.4°F6.3°C 61% 6.0 mph W9.7 kmh W 15.0 mph24.1 kmh 30.34 in1027.4 mb 0.00 in0.0 mm 0.00 in/hr0.0 mm/hr 0.00 in0.0 mm
01:31 PM 56.6°F13.7°C 44.2°F6.8°C 63% 8.0 mph WSW12.9 kmh WSW 12.0 mph19.3 kmh 30.34 in1027.4 mb 0.00 in0.0 mm 0.00 in/hr0.0 mm/hr 0.00 in0.0 mm
01:40 PM 56.7°F13.7°C 44.3°F6.8°C 63% 9.0 mph W14.5 kmh W 14.0 mph22.5 kmh 30.33 in1027.1 mb 0.00 in0.0 mm 0.00 in/hr0.0 mm/hr 0.00 in0.0 mm
01:50 PM 57.3°F14.1°C 45.2°F7.3°C 64% 3.0 mph W4.8 kmh W 14.0 mph22.5 kmh 30.33 in1027.1 mb 0.00 in0.0 mm 0.00 in/hr0.0 mm/hr 0.00 in0.0 mm
02:01 PM 57.4°F14.1°C 45.3°F7.4°C 64% 9.0 mph WSW14.5 kmh WSW 11.0 mph17.7 kmh 30.33 in1027.1 mb 0.00 in0.0 mm 0.00 in/hr0.0 mm/hr 0.00 in0.0 mm
02:10 PM 57.0°F13.9°C 45.4°F7.4°C 65% 8.0 mph WSW12.9 kmh WSW 13.0 mph20.9 kmh 30.32 in1026.8 mb 0.00 in0.0 mm 0.00 in/hr0.0 mm/hr 0.00 in0.0 mm
02:20 PM 57.1°F13.9°C 45.5°F7.5°C 65% 7.0 mph W11.3 kmh W 13.0 mph20.9 kmh 30.32 in1026.8 mb 0.00 in0.0 mm 0.00 in/hr0.0 mm/hr 0.00 in0.0 mm
02:30 PM 57.1°F13.9°C 45.9°F7.7°C 66% 5.0 mph W8.0 kmh W 8.0 mph12.9 kmh 30.32 in1026.8 mb 0.00 in0.0 mm 0.00 in/hr0.0 mm/hr 0.00 in0.0 mm
02:40 PM 57.1°F13.9°C 46.3°F7.9°C 67% 6.0 mph WSW9.7 kmh WSW 12.0 mph19.3 kmh 30.31 in1026.4 mb 0.00 in0.0 mm 0.00 in/hr0.0 mm/hr 0.00 in0.0 mm
02:50 PM 57.4°F14.1°C 45.8°F7.7°C 65% 9.0 mph W14.5 kmh W 13.0 mph20.9 kmh 30.30 in1026.1 mb 0.00 in0.0 mm 0.00 in/hr0.0 mm/hr 0.00 in0.0 mm
03:01 PM 57.6°F14.2°C 45.5°F7.5°C 64% 8.0 mph WSW12.9 kmh WSW 12.0 mph19.3 kmh 30.30 in1026.1 mb 0.00 in0.0 mm 0.00 in/hr0.0 mm/hr 0.00 in0.0 mm
03:10 PM 57.3°F14.1°C 45.7°F7.6°C 65% 8.0 mph WSW12.9 kmh WSW 12.0 mph19.3 kmh 30.30 in1026.1 mb 0.00 in0.0 mm 0.00 in/hr0.0 mm/hr 0.00 in0.0 mm
03:20 PM 57.1°F13.9°C 45.5°F7.5°C 65% 10.0 mph WSW16.1 kmh WSW 13.0 mph20.9 kmh 30.30 in1026.1 mb 0.00 in0.0 mm 0.00 in/hr0.0 mm/hr 0.00 in0.0 mm
03:31 PM 56.9°F13.8°C 45.7°F7.6°C 66% 11.0 mph W17.7 kmh W 11.0 mph17.7 kmh 30.31 in1026.4 mb 0.00 in0.0 mm 0.00 in/hr0.0 mm/hr 0.00 in0.0 mm
03:40 PM 56.8°F13.8°C 46.0°F7.8°C 67% 12.0 mph WSW19.3 kmh WSW 13.0 mph20.9 kmh 30.31 in1026.4 mb 0.00 in0.0 mm 0.00 in/hr0.0 mm/hr 0.00 in0.0 mm
03:50 PM 56.7°F13.7°C 45.9°F7.7°C 67% 6.0 mph WSW9.7 kmh WSW 13.0 mph20.9 kmh 30.30 in1026.1 mb 0.00 in0.0 mm 0.00 in/hr0.0 mm/hr 0.00 in0.0 mm
04:01 PM 56.4°F13.6°C 46.8°F8.2°C 70% 6.0 mph W9.7 kmh W 8.0 mph12.9 kmh 30.30 in1026.1 mb 0.00 in0.0 mm 0.00 in/hr0.0 mm/hr 0.00 in0.0 mm
04:10 PM 56.0°F13.3°C 46.7°F8.2°C 71% 7.0 mph WSW11.3 kmh WSW 16.0 mph25.7 kmh 30.30 in1026.1 mb 0.00 in0.0 mm 0.00 in/hr0.0 mm/hr 0.00 in0.0 mm
04:20 PM 55.6°F13.1°C 47.5°F8.6°C 74% 6.0 mph WSW9.7 kmh WSW 16.0 mph25.7 kmh 30.30 in1026.1 mb 0.00 in0.0 mm 0.00 in/hr0.0 mm/hr 0.00 in0.0 mm
04:31 PM 55.5°F13.1°C 48.1°F8.9°C 76% 7.0 mph WSW11.3 kmh WSW 11.0 mph17.7 kmh 30.30 in1026.1 mb 0.00 in0.0 mm 0.00 in/hr0.0 mm/hr 0.00 in0.0 mm
04:40 PM 55.0°F12.8°C 48.3°F9.1°C 78% 8.0 mph WSW12.9 kmh WSW 16.0 mph25.7 kmh 30.30 in1026.1 mb 0.00 in0.0 mm 0.00 in/hr0.0 mm/hr 0.00 in0.0 mm
04:50 PM 54.1°F12.3°C 48.4°F9.1°C 81% 7.0 mph W11.3 kmh W 16.0 mph25.7 kmh 30.31 in1026.4 mb 0.00 in0.0 mm 0.00 in/hr0.0 mm/hr 0.00 in0.0 mm
05:01 PM 53.9°F12.2°C 48.2°F9.0°C 81% 3.0 mph W4.8 kmh W 6.0 mph9.7 kmh 30.30 in1026.1 mb 0.00 in0.0 mm 0.00 in/hr0.0 mm/hr 0.00 in0.0 mm
05:10 PM 53.8°F12.1°C 48.4°F9.1°C 82% Calm Calm 6.0 mph9.7 kmh 30.30 in1026.1 mb 0.00 in0.0 mm 0.00 in/hr0.0 mm/hr 0.00 in0.0 mm
05:20 PM 53.3°F11.8°C 48.3°F9.1°C 83% 3.0 mph WSW4.8 kmh WSW 6.0 mph9.7 kmh 30.30 in1026.1 mb 0.00 in0.0 mm 0.00 in/hr0.0 mm/hr 0.00 in0.0 mm
05:31 PM 53.0°F11.7°C 48.3°F9.1°C 84% Calm Calm 7.0 mph11.3 kmh 30.30 in1026.1 mb 0.00 in0.0 mm 0.00 in/hr0.0 mm/hr 0.00 in0.0 mm
05:40 PM 52.8°F11.6°C 48.1°F8.9°C 84% 3.0 mph W4.8 kmh W 7.0 mph11.3 kmh 30.30 in1026.1 mb 0.00 in0.0 mm 0.00 in/hr0.0 mm/hr 0.00 in0.0 mm
05:50 PM 52.3°F11.3°C 48.2°F9.0°C 86% 1.0 mph WSW1.6 kmh WSW 7.0 mph11.3 kmh 30.30 in1026.1 mb 0.00 in0.0 mm 0.00 in/hr0.0 mm/hr 0.00 in0.0 mm
06:00 PM 52.0°F11.1°C 48.3°F9.1°C 87% 3.0 mph WSW4.8 kmh WSW 6.0 mph9.7 kmh 30.30 in1026.1 mb 0.00 in0.0 mm 0.00 in/hr0.0 mm/hr 0.00 in0.0 mm
06:10 PM 51.8°F11.0°C 48.4°F9.1°C 88% Calm Calm 6.0 mph9.7 kmh 30.30 in1026.1 mb 0.00 in0.0 mm 0.00 in/hr0.0 mm/hr 0.00 in0.0 mm
06:20 PM 51.6°F10.9°C 48.2°F9.0°C 88% Calm Calm 6.0 mph9.7 kmh 30.30 in1026.1 mb 0.00 in0.0 mm 0.00 in/hr0.0 mm/hr 0.00 in0.0 mm
06:40 PM 51.3°F10.7°C 48.2°F9.0°C 89% Calm Calm 5.0 mph8.0 kmh 30.29 in1025.7 mb 0.00 in0.0 mm 0.00 in/hr0.0 mm/hr 0.00 in0.0 mm
06:50 PM 51.3°F10.7°C 48.2°F9.0°C 89% Calm Calm 5.0 mph8.0 kmh 30.29 in1025.7 mb 0.00 in0.0 mm 0.00 in/hr0.0 mm/hr 0.00 in0.0 mm
07:01 PM 51.3°F10.7°C 47.9°F8.8°C 88% Calm Calm 3.0 mph4.8 kmh 30.29 in1025.7 mb 0.00 in0.0 mm 0.00 in/hr0.0 mm/hr 0.00 in0.0 mm
07:10 PM 51.2°F10.7°C 48.1°F8.9°C 89% Calm Calm 4.0 mph6.4 kmh 30.30 in1026.1 mb 0.00 in0.0 mm 0.00 in/hr0.0 mm/hr 0.00 in0.0 mm
07:20 PM 51.2°F10.7°C 48.1°F8.9°C 89% Calm Calm 4.0 mph6.4 kmh 30.30 in1026.1 mb 0.00 in0.0 mm 0.00 in/hr0.0 mm/hr 0.00 in0.0 mm
07:31 PM 51.2°F10.7°C 48.1°F8.9°C 89% Calm Calm -- 30.30 in1026.1 mb 0.00 in0.0 mm 0.00 in/hr0.0 mm/hr 0.00 in0.0 mm
07:40 PM 51.1°F10.6°C 48.3°F9.1°C 90% Calm Calm -- 30.29 in1025.7 mb 0.00 in0.0 mm 0.00 in/hr0.0 mm/hr 0.00 in0.0 mm
07:50 PM 51.1°F10.6°C 48.3°F9.1°C 90% Calm Calm -- 30.29 in1025.7 mb 0.00 in0.0 mm 0.00 in/hr0.0 mm/hr 0.00 in0.0 mm
08:01 PM 51.1°F10.6°C 48.6°F9.2°C 91% Calm Calm -- 30.29 in1025.7 mb 0.00 in0.0 mm 0.00 in/hr0.0 mm/hr 0.00 in0.0 mm
08:10 PM 51.2°F10.7°C 48.7°F9.3°C 91% Calm Calm 1.0 mph1.6 kmh 30.29 in1025.7 mb 0.00 in0.0 mm 0.00 in/hr0.0 mm/hr 0.00 in0.0 mm
08:20 PM 51.3°F10.7°C 48.8°F9.3°C 91% Calm Calm 1.0 mph1.6 kmh 30.28 in1025.4 mb 0.00 in0.0 mm 0.00 in/hr0.0 mm/hr 0.00 in0.0 mm
08:30 PM 51.5°F10.8°C 49.0°F9.4°C 91% Calm Calm -- 30.28 in1025.4 mb 0.00 in0.0 mm 0.00 in/hr0.0 mm/hr 0.00 in0.0 mm
08:40 PM 51.7°F10.9°C 49.2°F9.6°C 91% Calm Calm -- 30.28 in1025.4 mb 0.00 in0.0 mm 0.00 in/hr0.0 mm/hr 0.00 in0.0 mm
08:50 PM 51.8°F11.0°C 49.3°F9.6°C 91% Calm Calm 4.0 mph6.4 kmh 30.29 in1025.7 mb 0.00 in0.0 mm 0.00 in/hr0.0 mm/hr 0.00 in0.0 mm
09:01 PM 51.7°F10.9°C 49.2°F9.6°C 91% Calm Calm -- 30.28 in1025.4 mb 0.00 in0.0 mm 0.00 in/hr0.0 mm/hr 0.00 in0.0 mm
09:10 PM 51.7°F10.9°C 49.2°F9.6°C 91% Calm Calm -- 30.28 in1025.4 mb 0.00 in0.0 mm 0.00 in/hr0.0 mm/hr 0.00 in0.0 mm
09:20 PM 51.7°F10.9°C 49.5°F9.7°C 92% Calm Calm 1.0 mph1.6 kmh 30.28 in1025.4 mb 0.00 in0.0 mm 0.00 in/hr0.0 mm/hr 0.00 in0.0 mm
09:31 PM 51.7°F10.9°C 49.5°F9.7°C 92% Calm Calm -- 30.28 in1025.4 mb 0.00 in0.0 mm 0.00 in/hr0.0 mm/hr 0.00 in0.0 mm
09:40 PM 51.8°F11.0°C 49.8°F9.9°C 93% Calm Calm -- 30.28 in1025.4 mb 0.00 in0.0 mm 0.00 in/hr0.0 mm/hr 0.00 in0.0 mm
09:50 PM 51.6°F10.9°C 49.7°F9.8°C 93% Calm Calm -- 30.28 in1025.4 mb 0.00 in0.0 mm 0.00 in/hr0.0 mm/hr 0.00 in0.0 mm
10:01 PM 51.4°F10.8°C 49.5°F9.7°C 93% Calm Calm 1.0 mph1.6 kmh 30.28 in1025.4 mb 0.00 in0.0 mm 0.00 in/hr0.0 mm/hr 0.00 in0.0 mm
10:10 PM 51.3°F10.7°C 49.6°F9.8°C 94% Calm Calm 1.0 mph1.6 kmh 30.28 in1025.4 mb 0.00 in0.0 mm 0.00 in/hr0.0 mm/hr 0.00 in0.0 mm
10:20 PM 51.7°F10.9°C 50.0°F10.0°C 94% 4.0 mph WSW6.4 kmh WSW 6.0 mph9.7 kmh 30.28 in1025.4 mb 0.00 in0.0 mm 0.00 in/hr0.0 mm/hr 0.00 in0.0 mm
10:31 PM 51.6°F10.9°C 49.9°F9.9°C 94% 6.0 mph WSW9.7 kmh WSW 7.0 mph11.3 kmh 30.28 in1025.4 mb 0.00 in0.0 mm 0.00 in/hr0.0 mm/hr 0.00 in0.0 mm
10:40 PM 51.5°F10.8°C 50.1°F10.1°C 95% 4.0 mph W6.4 kmh W 7.0 mph11.3 kmh 30.28 in1025.4 mb 0.00 in0.0 mm 0.00 in/hr0.0 mm/hr 0.00 in0.0 mm
10:50 PM 51.3°F10.7°C 49.9°F9.9°C 95% 3.0 mph WSW4.8 kmh WSW 7.0 mph11.3 kmh 30.28 in1025.4 mb 0.00 in0.0 mm 0.00 in/hr0.0 mm/hr 0.00 in0.0 mm
11:01 PM 51.1°F10.6°C 49.7°F9.8°C 95% 5.0 mph WSW8.0 kmh WSW 6.0 mph9.7 kmh 30.28 in1025.4 mb 0.00 in0.0 mm 0.00 in/hr0.0 mm/hr 0.00 in0.0 mm
11:10 PM 51.1°F10.6°C 49.7°F9.8°C 95% 5.0 mph WSW8.0 kmh WSW 8.0 mph12.9 kmh 30.28 in1025.4 mb 0.00 in0.0 mm 0.00 in/hr0.0 mm/hr 0.00 in0.0 mm
11:20 PM 51.1°F10.6°C 50.0°F10.0°C 96% 3.0 mph WSW4.8 kmh WSW 8.0 mph12.9 kmh 30.27 in1025.1 mb 0.00 in0.0 mm 0.00 in/hr0.0 mm/hr 0.00 in0.0 mm
11:31 PM 51.0°F10.6°C 49.9°F9.9°C 96% 8.0 mph WSW12.9 kmh WSW 8.0 mph12.9 kmh 30.27 in1025.1 mb 0.00 in0.0 mm 0.00 in/hr0.0 mm/hr 0.00 in0.0 mm
11:40 PM 51.1°F10.6°C 50.0°F10.0°C 96% 4.0 mph WSW6.4 kmh WSW 8.0 mph12.9 kmh 30.27 in1025.1 mb 0.00 in0.0 mm 0.00 in/hr0.0 mm/hr 0.00 in0.0 mm
11:50 PM 51.1°F10.6°C 50.0°F10.0°C 96% 5.0 mph WSW8.0 kmh WSW 8.0 mph12.9 kmh 30.27 in1025.1 mb 0.00 in0.0 mm 0.00 in/hr0.0 mm/hr 0.00 in0.0 mm